Terminal Aerodrome Forecast
Issued by NWS

Current Version | Previous Version | Text Only | Print | Product List | Glossary On
Versions: 1 2 3 4 5 6 7 8 9 10 11 12
000
FTUS44 KOUN 240525
TAFLAW
TAF
KLAW 240525Z 2406/2506 18019G29KT P6SM BKN120
     FM241800 20024G30KT P6SM SKC
     FM242100 24025G32KT P6SM OVC100
     FM250000 25010KT P6SM OVC100
     FM250300 30014G22KT P6SM OVC100=

USA.gov is the U.S. government's official web portal to all federal, state and local government web resources and services.